Time;durP1;ratioP1;P1;durP2;ratioP2;P2;SDS_P1;SDS_P2;PMS_P1;PMS_P2;Temp;Humidity;BMP_temperature;BMP_pressure;BME280_temperature;BME280_humidity;BME280_pressure;Samples;Min_cycle;Max_cycle;Signal;HPM_P1;HPM_P2
2023/10/20 00:00:18;;;;;;;4.03;3.93;;;22.00;94.20;;;;;;4992163;28;20514;-68
2023/10/20 00:02:45;;;;;;;3.90;3.80;;;22.00;94.20;;;;;;4991850;28;20544;-69
2023/10/20 00:05:13;;;;;;;4.33;4.23;;;22.10;94.30;;;;;;4991956;28;20607;-69
2023/10/20 00:07:40;;;;;;;5.03;4.83;;;22.00;94.30;;;;;;4992063;28;20966;-68
2023/10/20 00:10:11;;;;;;;4.37;4.17;;;22.10;94.30;;;;;;4999792;28;20874;-69
2023/10/20 00:12:38;;;;;;;4.07;3.87;;;22.00;94.30;;;;;;4991863;28;20610;-69
2023/10/20 00:15:09;;;;;;;4.10;4.00;;;22.00;94.30;;;;;;4991728;28;20505;-69
2023/10/20 00:17:37;;;;;;;5.97;5.77;;;22.00;94.40;;;;;;4992269;28;20493;-68
2023/10/20 00:20:04;;;;;;;4.60;4.50;;;22.00;94.40;;;;;;4991809;28;20506;-69
2023/10/20 00:22:31;;;;;;;4.53;4.43;;;22.00;94.40;;;;;;4992697;28;20521;-69
2023/10/20 00:24:58;;;;;;;4.27;4.17;;;22.00;94.50;;;;;;4995420;28;20482;-69
2023/10/20 00:27:25;;;;;;;5.10;4.90;;;22.00;94.60;;;;;;4995774;28;20497;-69
2023/10/20 00:29:52;;;;;;;4.37;4.27;;;22.00;94.70;;;;;;4999830;28;20884;-69
2023/10/20 00:32:20;;;;;;;4.63;4.53;;;22.00;94.70;;;;;;4995415;28;20498;-69
2023/10/20 00:34:48;;;;;;;4.33;4.23;;;22.00;94.70;;;;;;4995163;28;20447;-69
2023/10/20 00:37:15;;;;;;;4.50;4.40;;;22.00;94.70;;;;;;5005229;28;20500;-69
2023/10/20 00:39:43;;;;;;;4.60;4.50;;;22.00;94.70;;;;;;4995600;28;20564;-69
2023/10/20 00:42:10;;;;;;;4.33;4.23;;;22.00;94.80;;;;;;4994866;28;20494;-69
2023/10/20 00:44:37;;;;;;;4.23;4.13;;;22.00;94.80;;;;;;4995098;28;20475;-69
2023/10/20 00:47:04;;;;;;;4.40;4.30;;;21.90;94.80;;;;;;4996640;28;20487;-68
2023/10/20 00:49:32;;;;;;;4.07;3.97;;;21.90;94.80;;;;;;4995146;28;20471;-69
2023/10/20 00:52:01;;;;;;;4.30;4.20;;;22.00;94.90;;;;;;4995022;28;20969;-69
2023/10/20 00:54:30;;;;;;;4.17;4.07;;;21.90;94.80;;;;;;4995151;28;20638;-68
2023/10/20 00:56:57;;;;;;;4.60;4.50;;;21.90;94.90;;;;;;5002149;28;20536;-68
2023/10/20 00:59:24;;;;;;;4.10;3.97;;;21.90;94.90;;;;;;4996714;28;20517;-69
2023/10/20 01:01:51;;;;;;;4.57;4.47;;;21.90;94.90;;;;;;4994692;28;20502;-69
2023/10/20 01:04:19;;;;;;;4.47;4.37;;;21.90;94.90;;;;;;4994842;28;20481;-69
2023/10/20 01:06:48;;;;;;;3.90;3.80;;;21.90;94.90;;;;;;4996740;28;20499;-69
2023/10/20 01:09:25;;;;;;;4.80;4.70;;;21.90;94.90;;;;;;4990113;28;20455;-69
2023/10/20 01:11:52;;;;;;;4.30;4.20;;;21.90;94.90;;;;;;4997513;28;20484;-68
2023/10/20 01:14:18;;;;;;;4.27;4.17;;;21.90;95.00;;;;;;4994748;28;20537;-68
2023/10/20 01:16:45;;;;;;;4.63;4.53;;;21.90;95.00;;;;;;4994651;28;20492;-68
2023/10/20 01:19:12;;;;;;;4.47;4.37;;;21.90;95.10;;;;;;4986458;28;20483;-68
2023/10/20 01:21:39;;;;;;;4.10;4.00;;;21.90;95.10;;;;;;4994685;28;20502;-69
2023/10/20 01:24:08;;;;;;;4.73;4.63;;;21.90;95.10;;;;;;4994523;28;20474;-68
2023/10/20 01:26:35;;;;;;;5.27;5.17;;;21.90;95.10;;;;;;4994474;28;20483;-69
2023/10/20 01:29:05;;;;;;;4.57;4.47;;;21.90;95.10;;;;;;4994400;28;20482;-68
2023/10/20 01:31:32;;;;;;;4.37;4.27;;;21.90;95.10;;;;;;4994651;28;20833;-68
2023/10/20 01:33:59;;;;;;;3.80;3.80;;;21.80;95.10;;;;;;4993155;28;20478;-68
2023/10/20 01:36:26;;;;;;;5.27;5.17;;;21.90;95.10;;;;;;4993675;28;20474;-68
2023/10/20 01:38:53;;;;;;;4.80;4.70;;;21.90;95.20;;;;;;4994302;28;20470;-68
2023/10/20 01:41:21;;;;;;;4.53;4.43;;;21.90;95.20;;;;;;4993988;28;20557;-69
2023/10/20 01:43:48;;;;;;;4.83;4.63;;;21.80;95.10;;;;;;4994009;28;20883;-68
2023/10/20 01:46:15;;;;;;;4.47;4.37;;;21.90;95.10;;;;;;4994203;28;20482;-68
2023/10/20 01:48:41;;;;;;;4.50;4.30;;;21.80;95.10;;;;;;4994236;28;20539;-68
2023/10/20 01:51:08;;;;;;;4.40;4.30;;;21.80;95.20;;;;;;4993778;28;20467;-69
2023/10/20 01:53:35;;;;;;;4.83;4.73;;;21.80;95.20;;;;;;4993899;28;20474;-68
2023/10/20 01:56:02;;;;;;;4.20;4.17;;;21.80;95.20;;;;;;4993847;28;20465;-68
2023/10/20 01:58:31;;;;;;;4.30;4.20;;;21.80;95.20;;;;;;4993890;28;20478;-69
2023/10/20 02:00:58;;;;;;;3.93;3.93;;;21.90;95.20;;;;;;4993592;28;20573;-69
2023/10/20 02:03:25;;;;;;;3.97;3.87;;;21.80;95.20;;;;;;4993727;28;20946;-68
2023/10/20 02:05:52;;;;;;;4.17;4.07;;;21.80;95.20;;;;;;4993646;28;20479;-69
2023/10/20 02:08:19;;;;;;;4.50;4.30;;;21.80;95.30;;;;;;4993851;28;20944;-68
2023/10/20 02:10:46;;;;;;;4.33;4.23;;;21.80;95.30;;;;;;5008945;28;20469;-68
2023/10/20 02:13:13;;;;;;;3.80;3.70;;;21.80;95.30;;;;;;4993663;28;20813;-68
2023/10/20 02:15:46;;;;;;;4.40;4.30;;;21.80;95.30;;;;;;4993591;28;20485;-68
2023/10/20 02:18:13;;;;;;;3.80;3.80;;;21.80;95.30;;;;;;4993526;28;20465;-69
2023/10/20 02:20:40;;;;;;;4.47;4.37;;;21.80;95.30;;;;;;4993684;28;20518;-68
2023/10/20 02:23:08;;;;;;;4.27;4.17;;;21.80;95.30;;;;;;4993349;28;20470;-68
2023/10/20 02:25:34;;;;;;;4.10;4.00;;;21.80;95.40;;;;;;4993504;28;21038;-68
2023/10/20 02:28:02;;;;;;;3.93;3.83;;;21.80;95.40;;;;;;4993464;28;20598;-68
2023/10/20 02:30:32;;;;;;;5.47;5.20;;;21.80;95.40;;;;;;4993357;28;20446;-68
2023/10/20 02:33:01;;;;;;;3.73;3.73;;;21.80;95.40;;;;;;4993207;28;20442;-69
2023/10/20 02:35:28;;;;;;;4.10;3.90;;;21.80;95.40;;;;;;4993323;28;20482;-69
2023/10/20 02:37:55;;;;;;;4.03;3.93;;;21.80;95.40;;;;;;4993204;28;20471;-68
2023/10/20 02:40:22;;;;;;;3.93;3.83;;;21.80;95.50;;;;;;4993098;28;20518;-68
2023/10/20 02:42:49;;;;;;;4.17;4.07;;;21.80;95.50;;;;;;5041178;22;21049;-68
2023/10/20 02:45:16;;;;;;;4.00;3.90;;;21.80;95.80;;;;;;5024031;28;20496;-67
2023/10/20 02:47:43;;;;;;;4.70;4.60;;;21.80;95.50;;;;;;5032635;28;20469;-68
2023/10/20 02:50:12;;;;;;;4.20;4.10;;;21.80;95.40;;;;;;5032281;28;20861;-68
2023/10/20 02:52:39;;;;;;;4.20;4.10;;;21.80;95.40;;;;;;5031936;28;20501;-68
2023/10/20 02:55:07;;;;;;;4.03;3.93;;;21.80;95.50;;;;;;5032116;28;20445;-67
2023/10/20 02:57:36;;;;;;;3.83;3.77;;;21.80;95.50;;;;;;5032246;28;20476;-66
2023/10/20 03:00:04;;;;;;;4.30;4.20;;;21.80;95.50;;;;;;5032113;28;20481;-68
2023/10/20 03:02:31;;;;;;;4.57;4.47;;;21.80;95.50;;;;;;5031719;28;20559;-67
2023/10/20 03:04:58;;;;;;;4.00;3.90;;;21.80;95.50;;;;;;5031904;28;20897;-67
2023/10/20 03:07:27;;;;;;;4.23;4.13;;;21.80;95.60;;;;;;5032120;28;20479;-68
2023/10/20 03:09:54;;;;;;;5.97;5.87;;;21.80;95.60;;;;;;5031964;28;20446;-68
2023/10/20 03:12:21;;;;;;;6.50;6.30;;;21.70;95.60;;;;;;5031407;28;20520;-68
2023/10/20 03:14:49;;;;;;;4.30;4.20;;;21.80;95.70;;;;;;5031804;28;20473;-67
2023/10/20 03:17:16;;;;;;;4.83;4.63;;;21.70;95.70;;;;;;5031891;28;20441;-68
2023/10/20 03:19:44;;;;;;;3.93;3.90;;;21.70;95.70;;;;;;5031787;28;20539;-68
2023/10/20 03:22:12;;;;;;;4.50;4.40;;;21.70;95.70;;;;;;5031319;28;20564;-68
2023/10/20 03:24:41;;;;;;;4.37;4.27;;;21.70;95.70;;;;;;5031778;28;20499;-68
2023/10/20 03:27:08;;;;;;;4.40;4.30;;;21.70;95.70;;;;;;5031649;28;20477;-68
2023/10/20 03:29:35;;;;;;;5.43;5.17;;;21.70;95.60;;;;;;5031699;28;20482;-68
2023/10/20 03:32:03;;;;;;;4.27;4.17;;;21.80;95.70;;;;;;5031277;28;20500;-67
2023/10/20 03:34:32;;;;;;;4.90;4.80;;;21.80;95.60;;;;;;5031561;28;20799;-68
2023/10/20 03:37:00;;;;;;;4.77;4.67;;;21.70;95.50;;;;;;5031521;28;20924;-68
2023/10/20 03:39:27;;;;;;;5.33;5.07;;;21.80;95.70;;;;;;5031691;28;20499;-68
2023/10/20 03:41:55;;;;;;;4.90;4.80;;;21.70;95.80;;;;;;5030629;28;20880;-68
2023/10/20 03:44:22;;;;;;;4.90;4.70;;;21.70;95.90;;;;;;5031281;28;20859;-67
2023/10/20 03:46:49;;;;;;;4.00;4.00;;;21.70;95.90;;;;;;5031532;28;20472;-68
2023/10/20 03:49:18;;;;;;;3.90;3.90;;;21.70;95.80;;;;;;5031370;28;20442;-68
2023/10/20 03:51:49;;;;;;;4.77;4.50;;;21.70;95.70;;;;;;5031053;28;20503;-67
2023/10/20 03:54:16;;;;;;;4.37;4.27;;;21.70;95.70;;;;;;5031396;28;20524;-68
2023/10/20 03:56:43;;;;;;;4.07;4.00;;;21.70;95.70;;;;;;5031320;28;20433;-67
2023/10/20 03:59:13;;;;;;;5.37;5.17;;;21.70;95.70;;;;;;5035249;28;20467;-68
2023/10/20 04:01:40;;;;;;;4.50;4.40;;;21.70;95.70;;;;;;5035001;28;20572;-68
2023/10/20 04:04:09;;;;;;;4.20;4.10;;;21.70;95.80;;;;;;5035437;28;20488;-67
2023/10/20 04:06:37;;;;;;;4.40;4.30;;;21.70;95.80;;;;;;5035283;28;20525;-68
2023/10/20 04:09:08;;;;;;;4.50;4.40;;;21.70;95.90;;;;;;5035154;28;20441;-68
2023/10/20 04:11:35;;;;;;;4.83;4.67;;;21.70;95.90;;;;;;5035051;28;20469;-67
2023/10/20 04:14:02;;;;;;;4.70;4.60;;;21.70;95.90;;;;;;5035005;28;20528;-68
2023/10/20 04:16:31;;;;;;;5.27;5.10;;;21.70;95.90;;;;;;5035044;28;20591;-68
2023/10/20 04:18:59;;;;;;;5.53;5.33;;;21.70;95.80;;;;;;5034998;28;20812;-68
2023/10/20 04:21:26;;;;;;;4.77;4.50;;;21.70;95.90;;;;;;5034600;28;20485;-67
2023/10/20 04:23:54;;;;;;;5.20;5.10;;;21.70;96.00;;;;;;5035176;28;20447;-68
2023/10/20 04:26:21;;;;;;;4.40;4.30;;;21.70;96.10;;;;;;5035032;28;20811;-68
2023/10/20 04:29:02;;;;;;;5.83;5.70;;;21.70;96.10;;;;;;5034998;28;20441;-67
2023/10/20 04:46:38;;;;;;;4.80;4.70;;;21.70;96.00;;;;;;5034535;28;20539;-67
2023/10/20 04:48:20;;;;;;;4.90;4.80;;;21.70;95.60;;;;;;5034272;28;20784;-67
2023/10/20 04:51:14;;;;;;;5.80;5.60;;;21.70;95.30;;;;;;5034358;28;20962;-67
2023/10/20 04:53:52;;;;;;;5.00;4.90;;;21.80;95.20;;;;;;5029179;28;20449;-67
2023/10/20 04:56:38;;;;;;;5.90;5.70;;;21.80;95.10;;;;;;5034136;28;20440;-67
2023/10/20 04:59:05;;;;;;;5.63;5.53;;;21.80;94.90;;;;;;5034405;28;20445;-67
2023/10/20 05:01:43;;;;;;;5.03;4.93;;;21.80;94.80;;;;;;5034117;28;20530;-67
2023/10/20 05:04:16;;;;;;;8.40;5.10;;;21.80;94.70;;;;;;5034424;28;20455;-67
2023/10/20 05:06:44;;;;;;;4.67;4.57;;;21.80;94.70;;;;;;5034137;28;20452;-67
2023/10/20 05:09:14;;;;;;;5.17;5.07;;;21.80;94.60;;;;;;5033861;28;20479;-67
2023/10/20 05:11:41;;;;;;;5.30;5.20;;;21.80;94.50;;;;;;5033969;28;20457;-66
2023/10/20 05:14:08;;;;;;;5.90;5.80;;;21.80;94.40;;;;;;5034009;28;20445;-67
2023/10/20 05:16:35;;;;;;;5.93;5.53;;;21.80;94.30;;;;;;5033994;28;20816;-67
2023/10/20 05:19:03;;;;;;;5.40;5.30;;;21.80;94.30;;;;;;5033798;28;20484;-67
2023/10/20 05:21:33;;;;;;;6.03;5.93;;;21.80;94.20;;;;;;5033800;28;20488;-67
2023/10/20 05:24:03;;;;;;;5.07;4.97;;;21.80;94.20;;;;;;5033901;28;20443;-67
2023/10/20 05:26:30;;;;;;;5.23;5.13;;;21.80;94.10;;;;;;5033802;28;20643;-67
2023/10/20 05:28:57;;;;;;;4.83;4.73;;;21.80;94.10;;;;;;5033693;28;20940;-67
2023/10/20 05:31:25;;;;;;;5.20;5.07;;;21.80;94.00;;;;;;5033497;28;20457;-67
2023/10/20 05:33:53;;;;;;;4.80;4.70;;;21.80;94.00;;;;;;5033636;28;20441;-67
2023/10/20 05:36:19;;;;;;;4.93;4.83;;;21.80;93.90;;;;;;5033413;28;20879;-67
2023/10/20 05:38:48;;;;;;;5.03;4.93;;;21.80;93.90;;;;;;5033550;28;20525;-67
2023/10/20 05:41:15;;;;;;;6.57;6.37;;;21.80;93.90;;;;;;5033115;28;20556;-67
2023/10/20 05:43:42;;;;;;;5.70;5.60;;;21.80;93.80;;;;;;5033408;28;20469;-67
2023/10/20 05:46:15;;;;;;;5.60;5.50;;;21.80;93.80;;;;;;5033108;28;20437;-67
2023/10/20 05:48:42;;;;;;;5.57;5.37;;;21.80;93.80;;;;;;5033371;28;20441;-67
2023/10/20 05:51:09;;;;;;;5.67;5.57;;;21.80;93.80;;;;;;5033083;28;20496;-67
2023/10/20 05:53:36;;;;;;;6.27;5.77;;;21.80;93.70;;;;;;5033312;28;20514;-67
2023/10/20 05:56:05;;;;;;;5.60;5.40;;;21.80;93.70;;;;;;5032915;28;20476;-67
2023/10/20 05:58:33;;;;;;;5.60;5.50;;;21.80;93.70;;;;;;5033237;28;20480;-67
2023/10/20 06:01:07;;;;;;;5.70;5.10;;;21.80;93.60;;;;;;5032774;28;20508;-67
2023/10/20 06:03:34;;;;;;;5.73;5.53;;;21.80;93.50;;;;;;5033007;28;20473;-67
2023/10/20 06:06:01;;;;;;;5.10;5.00;;;21.80;93.50;;;;;;5032862;28;20909;-67
2023/10/20 06:08:29;;;;;;;5.47;5.37;;;21.80;93.50;;;;;;5033035;28;20524;-67
2023/10/20 06:11:05;;;;;;;5.10;5.00;;;21.80;93.40;;;;;;5032956;28;20476;-67
2023/10/20 06:13:34;;;;;;;6.10;6.00;;;21.80;93.40;;;;;;5025991;28;20499;-67
2023/10/20 06:16:08;;;;;;;5.07;4.97;;;21.80;93.40;;;;;;5032643;28;20523;-67
2023/10/20 06:18:35;;;;;;;5.10;5.00;;;21.80;93.30;;;;;;5032931;28;20886;-67
2023/10/20 06:21:02;;;;;;;4.87;4.77;;;21.80;93.30;;;;;;5031397;28;20527;-67
2023/10/20 06:23:29;;;;;;;4.47;4.47;;;21.80;93.30;;;;;;5032210;28;20449;-68
2023/10/20 06:25:57;;;;;;;4.47;4.47;;;21.80;93.30;;;;;;5032036;28;20451;-67
2023/10/20 06:28:25;;;;;;;5.30;5.20;;;21.80;93.50;;;;;;5032521;28;20468;-66
2023/10/20 06:30:54;;;;;;;5.00;4.90;;;21.90;95.70;;;;;;5032687;28;20499;-70
2023/10/20 06:33:24;;;;;;;5.33;5.23;;;21.80;98.40;;;;;;5032246;28;20449;-71
2023/10/20 06:35:59;;;;;;;5.60;5.50;;;21.80;98.20;;;;;;5032449;28;20441;-69
2023/10/20 06:38:34;;;;;;;5.73;5.53;;;21.80;97.70;;;;;;5024714;28;20498;-68
2023/10/20 06:41:01;;;;;;;5.60;5.40;;;21.90;97.30;;;;;;5032145;28;20480;-69
2023/10/20 06:43:29;;;;;;;5.47;5.37;;;21.90;97.20;;;;;;5032195;28;20449;-68
2023/10/20 06:45:57;;;;;;;5.60;5.50;;;21.90;97.00;;;;;;5032172;28;20453;-69
2023/10/20 06:48:24;;;;;;;6.03;5.83;;;22.00;96.90;;;;;;5032247;28;20922;-69
2023/10/20 06:50:51;;;;;;;5.57;5.37;;;22.00;96.80;;;;;;5032243;28;20526;-69
2023/10/20 06:53:18;;;;;;;6.30;6.03;;;22.00;96.80;;;;;;5032060;28;20483;-67
2023/10/20 06:55:46;;;;;;;5.20;5.10;;;22.00;96.60;;;;;;5032195;28;20953;-69
2023/10/20 06:58:13;;;;;;;6.47;6.17;;;22.00;96.60;;;;;;5032187;28;20446;-69
2023/10/20 07:00:42;;;;;;;5.77;5.67;;;22.00;96.50;;;;;;5032080;28;21094;-67
2023/10/20 07:03:11;;;;;;;5.57;5.37;;;22.00;96.50;;;;;;5031817;28;21003;-69
2023/10/20 07:05:38;;;;;;;7.30;6.83;;;22.00;96.60;;;;;;5032049;28;20437;-69
2023/10/20 07:08:06;;;;;;;5.50;5.30;;;22.00;96.50;;;;;;5031967;28;20822;-69
2023/10/20 07:10:37;;;;;;;6.00;5.80;;;22.00;96.50;;;;;;5031934;28;20487;-68
2023/10/20 07:13:06;;;;;;;5.70;5.60;;;22.00;96.40;;;;;;5031475;28;20460;-69
2023/10/20 07:15:34;;;;;;;5.50;5.40;;;22.10;96.50;;;;;;5031773;28;20805;-69
2023/10/20 07:18:03;;;;;;;6.03;5.80;;;22.10;96.40;;;;;;5031573;28;20445;-66
2023/10/20 07:20:30;;;;;;;5.90;5.60;;;22.10;96.40;;;;;;5031931;28;20495;-69
2023/10/20 07:22:57;;;;;;;6.30;5.80;;;22.10;96.30;;;;;;5031247;28;20495;-68
2023/10/20 07:25:24;;;;;;;7.03;6.53;;;22.10;96.30;;;;;;5031291;28;20981;-69
2023/10/20 07:27:51;;;;;;;6.47;6.17;;;22.10;96.30;;;;;;5031707;28;20503;-68
2023/10/20 07:30:18;;;;;;;6.97;6.63;;;22.10;96.20;;;;;;5031616;28;20963;-69
2023/10/20 07:32:45;;;;;;;6.30;6.10;;;22.10;96.20;;;;;;5030591;28;20512;-68
2023/10/20 07:35:15;;;;;;;13.67;8.30;;;22.10;96.20;;;;;;5031453;28;20447;-67
2023/10/20 07:37:43;;;;;;;20.10;9.67;;;22.20;97.10;;;;;;5031166;28;20443;-68
2023/10/20 07:40:11;;;;;;;29.70;11.10;;;22.00;98.60;;;;;;5031560;28;20476;-67
2023/10/20 07:42:39;;;;;;;91.73;18.77;;;21.90;99.40;;;;;;5030994;28;20516;-70
2023/10/20 07:45:07;;;;;;;127.00;22.53;;;21.90;98.70;;;;;;5031026;28;20449;-68
2023/10/20 07:47:34;;;;;;;56.97;12.17;;;21.90;98.40;;;;;;5031390;28;20524;-67
2023/10/20 07:50:01;;;;;;;53.00;17.33;;;21.90;99.70;;;;;;5031631;28;20476;-66
2023/10/20 07:52:29;;;;;;;43.83;16.67;;;21.80;99.90;;;;;;5023124;28;20530;-68
2023/10/20 07:54:56;;;;;;;38.97;12.30;;;21.80;99.90;;;;;;5031296;28;20473;-68
2023/10/20 07:57:24;;;;;;;65.17;15.23;;;21.70;99.90;;;;;;5031210;28;20867;-68
2023/10/20 07:59:52;;;;;;;55.00;14.90;;;21.80;99.90;;;;;;5031329;28;20532;-69
2023/10/20 08:02:19;;;;;;;53.77;13.40;;;21.80;99.90;;;;;;5030836;28;20539;-67
2023/10/20 08:04:46;;;;;;;56.47;12.57;;;21.80;99.90;;;;;;5030409;28;20485;-68
2023/10/20 08:07:13;;;;;;;30.57;9.43;;;21.90;99.90;;;;;;5031324;28;20898;-70
2023/10/20 08:09:41;;;;;;;25.83;9.50;;;21.80;99.90;;;;;;5031330;28;20469;-68
2023/10/20 08:12:08;;;;;;;26.10;9.03;;;21.80;99.90;;;;;;5031132;28;20496;-68
2023/10/20 08:14:35;;;;;;;15.37;8.17;;;21.80;99.90;;;;;;5030715;28;20449;-68
2023/10/20 08:17:07;;;;;;;11.57;6.97;;;21.80;99.90;;;;;;5031083;28;20449;-68
2023/10/20 08:19:34;;;;;;;11.90;7.00;;;21.80;99.90;;;;;;5023892;28;20508;-68
2023/10/20 08:22:01;;;;;;;18.97;7.90;;;21.80;99.90;;;;;;5030795;28;20523;-67
2023/10/20 08:24:28;;;;;;;11.80;8.10;;;21.80;99.90;;;;;;5030985;28;20472;-68
2023/10/20 08:26:57;;;;;;;10.13;7.20;;;21.80;99.90;;;;;;5031087;28;20465;-67
2023/10/20 08:29:24;;;;;;;8.57;7.33;;;21.80;99.90;;;;;;5030987;28;20822;-68
2023/10/20 08:31:51;;;;;;;8.90;7.97;;;21.80;99.90;;;;;;5030711;28;20519;-67
2023/10/20 08:34:18;;;;;;;20.70;11.40;;;21.80;99.90;;;;;;5030975;28;20441;-68
2023/10/20 08:36:45;;;;;;;16.70;7.63;;;21.80;99.90;;;;;;5030920;28;20464;-67
2023/10/20 08:39:17;;;;;;;16.83;7.37;;;21.80;99.90;;;;;;5030977;28;20461;-68
2023/10/20 08:41:44;;;;;;;7.10;6.50;;;21.70;99.90;;;;;;5030826;28;20488;-66
2023/10/20 08:44:14;;;;;;;12.25;6.82;;;21.80;99.90;;;;;;5032435;28;20472;-66
2023/10/20 08:46:42;;;;;;;7.77;7.00;;;21.70;99.90;;;;;;5034520;28;20632;-67
2023/10/20 08:49:11;;;;;;;10.90;6.90;;;21.80;99.90;;;;;;5034516;28;20437;-67
2023/10/20 08:51:38;;;;;;;10.60;7.47;;;21.80;99.90;;;;;;5034345;28;20469;-66
2023/10/20 08:54:09;;;;;;;10.77;7.33;;;21.80;99.90;;;;;;5034409;28;20445;-65
2023/10/20 08:56:36;;;;;;;9.40;7.33;;;21.80;99.90;;;;;;5034457;28;20437;-66
2023/10/20 08:59:05;;;;;;;7.30;6.90;;;21.70;99.90;;;;;;5034537;28;20491;-65
2023/10/20 09:01:33;;;;;;;7.97;7.47;;;21.80;99.90;;;;;;5031300;28;20476;-65
2023/10/20 09:04:00;;;;;;;8.10;6.80;;;21.70;99.90;;;;;;5034386;28;20473;-65
2023/10/20 09:06:28;;;;;;;19.90;8.90;;;21.70;99.90;;;;;;5034082;28;20975;-65
2023/10/20 09:08:57;;;;;;;23.93;10.80;;;21.70;99.90;;;;;;5034297;28;20476;-67
2023/10/20 09:11:30;;;;;;;11.63;9.33;;;21.70;99.90;;;;;;5033746;28;20483;-68
2023/10/20 09:14:00;;;;;;;10.70;9.63;;;21.70;99.90;;;;;;5034074;28;20528;-68
2023/10/20 09:16:28;;;;;;;9.17;8.37;;;21.60;99.90;;;;;;5034232;28;20441;-67
2023/10/20 09:18:56;;;;;;;19.40;10.93;;;21.60;99.90;;;;;;5034174;28;20510;-69
2023/10/20 09:21:25;;;;;;;14.07;8.30;;;21.50;99.90;;;;;;5033176;28;20473;-68
2023/10/20 09:23:57;;;;;;;10.13;7.93;;;21.60;99.90;;;;;;5033586;28;20844;-68
2023/10/20 09:26:25;;;;;;;35.60;12.90;;;21.50;99.90;;;;;;5033854;28;20480;-66
2023/10/20 09:28:53;;;;;;;16.50;12.17;;;21.60;99.90;;;;;;5033941;28;20457;-68
2023/10/20 09:31:22;;;;;;;25.83;10.70;;;21.50;99.90;;;;;;5033597;28;21002;-68
2023/10/20 09:33:49;;;;;;;55.00;15.60;;;21.50;99.90;;;;;;5034082;28;20864;-68
2023/10/20 09:36:18;;;;;;;88.07;31.33;;;21.50;99.90;;;;;;5033678;28;20510;-68
2023/10/20 09:38:50;;;;;;;122.10;33.33;;;21.40;99.90;;;;;;5033763;28;20495;-68
2023/10/20 09:41:21;;;;;;;82.77;28.30;;;21.40;99.90;;;;;;5033202;28;20501;-65
2023/10/20 09:43:49;;;;;;;80.47;22.17;;;21.40;99.90;;;;;;5033505;28;20528;-67
2023/10/20 09:46:29;;;;;;;84.70;23.50;;;21.50;99.90;;;;;;5033452;28;20441;-67
2023/10/20 09:49:00;;;;;;;73.87;24.30;;;21.50;99.90;;;;;;5033625;28;20441;-64
2023/10/20 09:51:29;;;;;;;98.67;27.47;;;21.40;99.90;;;;;;5032986;28;20469;-67
2023/10/20 09:53:57;;;;;;;104.57;28.23;;;21.40;99.90;;;;;;5033249;28;20484;-65
2023/10/20 09:56:24;;;;;;;103.50;24.30;;;21.40;99.90;;;;;;5032275;28;20451;-66
2023/10/20 09:58:58;;;;;;;85.07;23.77;;;21.30;99.90;;;;;;5033477;28;20484;-66
2023/10/20 10:01:25;;;;;;;78.80;23.37;;;21.30;99.90;;;;;;5032759;28;20469;-69
2023/10/20 10:04:01;;;;;;;113.00;27.88;;;21.50;99.90;;;;;;5031306;28;20515;-68
2023/10/20 10:06:35;;;;;;;80.93;24.33;;;21.50;99.90;;;;;;5032180;28;20294;-70
2023/10/20 10:09:04;;;;;;;74.33;22.77;;;21.50;99.90;;;;;;5033235;28;20477;-67
2023/10/20 10:11:32;;;;;;;56.00;17.33;;;21.60;99.90;;;;;;5032958;28;20519;-70
2023/10/20 10:14:02;;;;;;;59.43;18.00;;;21.60;99.90;;;;;;5032631;28;20478;-70
2023/10/20 10:16:30;;;;;;;44.13;15.87;;;21.60;99.90;;;;;;5032899;28;20437;-70
2023/10/20 10:19:07;;;;;;;36.33;13.90;;;21.70;99.90;;;;;;5033008;28;20444;-68
2023/10/20 10:21:39;;;;;;;21.87;13.90;;;21.60;99.90;;;;;;5032427;28;20511;-70
2023/10/20 10:24:14;;;;;;;22.33;12.50;;;21.50;99.90;;;;;;5033041;28;21072;-70
2023/10/20 10:26:50;;;;;;;21.47;9.97;;;21.50;99.90;;;;;;5025638;28;20437;-71
2023/10/20 10:29:17;;;;;;;14.77;10.87;;;21.50;99.90;;;;;;5032690;28;20472;-71
2023/10/20 10:31:45;;;;;;;12.50;11.40;;;21.50;99.90;;;;;;5032772;28;20488;-72
2023/10/20 10:34:12;;;;;;;8.53;7.93;;;21.50;99.90;;;;;;5032570;28;20868;-72
2023/10/20 10:36:49;;;;;;;13.93;9.97;;;21.50;99.90;;;;;;5032819;28;20468;-74
2023/10/20 10:39:24;;;;;;;9.53;8.80;;;21.60;99.90;;;;;;5033042;28;20481;-73
2023/10/20 10:41:53;;;;;;;8.43;7.93;;;21.60;99.90;;;;;;5032624;28;20472;-70
2023/10/20 10:44:21;;;;;;;10.80;10.17;;;21.70;99.90;;;;;;5032478;28;20445;-73
2023/10/20 10:46:48;;;;;;;10.33;9.47;;;21.80;99.90;;;;;;5032572;28;20439;-73
2023/10/20 10:49:16;;;;;;;9.53;8.93;;;21.80;99.90;;;;;;5032679;28;20440;-73
2023/10/20 10:51:45;;;;;;;8.77;8.10;;;21.80;99.90;;;;;;5032796;28;20461;-73
2023/10/20 10:54:13;;;;;;;10.50;9.80;;;21.80;99.90;;;;;;5032616;28;20433;-72
2023/10/20 10:56:42;;;;;;;9.37;8.87;;;21.90;99.90;;;;;;5032184;28;20437;-72
2023/10/20 10:59:10;;;;;;;9.30;8.37;;;21.90;99.90;;;;;;5032532;28;20437;-73
2023/10/20 11:01:39;;;;;;;10.40;9.73;;;21.90;99.90;;;;;;5024149;28;20488;-73
2023/10/20 11:04:08;;;;;;;9.20;8.70;;;21.90;99.90;;;;;;5031862;28;20476;-72
2023/10/20 11:06:37;;;;;;;10.40;9.47;;;21.90;99.90;;;;;;5023612;28;20445;-72
2023/10/20 11:09:06;;;;;;;8.97;8.37;;;21.90;99.90;;;;;;5031907;28;20479;-72
2023/10/20 11:11:42;;;;;;;9.57;9.10;;;21.90;99.90;;;;;;5031605;28;20488;-72
2023/10/20 11:14:09;;;;;;;9.43;8.80;;;21.90;99.90;;;;;;5031973;28;20441;-72
2023/10/20 11:16:37;;;;;;;9.80;9.07;;;21.90;99.90;;;;;;5023615;28;20487;-72
2023/10/20 11:19:04;;;;;;;9.47;8.80;;;21.90;99.90;;;;;;5031857;28;20441;-72
2023/10/20 11:21:45;;;;;;;8.70;8.00;;;21.90;99.90;;;;;;5031475;28;20998;-72
2023/10/20 11:24:13;;;;;;;8.87;8.47;;;21.90;99.90;;;;;;5031479;28;20844;-73
2023/10/20 11:26:41;;;;;;;9.13;8.53;;;21.90;99.90;;;;;;5031380;28;20473;-73
2023/10/20 11:29:08;;;;;;;9.23;8.43;;;21.90;99.90;;;;;;5031641;28;20941;-72
2023/10/20 11:31:37;;;;;;;8.30;7.90;;;21.80;99.90;;;;;;5031331;28;20837;-72
2023/10/20 11:34:04;;;;;;;7.50;7.20;;;21.90;99.90;;;;;;5031508;28;20447;-73
2023/10/20 11:36:31;;;;;;;7.93;7.53;;;21.80;99.90;;;;;;5031463;28;20441;-74
2023/10/20 11:38:58;;;;;;;7.93;7.53;;;21.80;99.90;;;;;;5031441;28;20469;-73
2023/10/20 11:41:25;;;;;;;8.00;7.70;;;21.80;99.90;;;;;;5031056;28;20493;-72
2023/10/20 11:43:53;;;;;;;8.23;7.93;;;21.80;99.90;;;;;;5031437;28;20512;-71
2023/10/20 11:46:20;;;;;;;8.40;7.80;;;21.80;99.90;;;;;;5031068;28;20477;-71
2023/10/20 11:48:47;;;;;;;7.87;7.33;;;21.80;99.90;;;;;;5031395;28;20479;-72
2023/10/20 11:51:14;;;;;;;7.90;7.50;;;21.80;99.90;;;;;;5031127;28;20464;-72
2023/10/20 11:53:41;;;;;;;9.67;9.17;;;21.80;99.90;;;;;;5031334;28;20476;-72
2023/10/20 11:56:08;;;;;;;8.17;7.87;;;21.80;99.90;;;;;;5031291;28;20956;-72
2023/10/20 11:58:35;;;;;;;8.80;8.30;;;21.80;99.90;;;;;;5031252;28;20512;-72
2023/10/20 12:01:04;;;;;;;7.93;7.60;;;21.80;99.90;;;;;;5031178;28;20470;-72
2023/10/20 12:03:30;;;;;;;7.67;7.37;;;21.80;99.90;;;;;;5031108;28;20481;-72
2023/10/20 12:05:58;;;;;;;8.53;8.03;;;21.80;99.90;;;;;;5031161;28;20473;-72
2023/10/20 12:08:25;;;;;;;10.13;7.93;;;21.80;99.90;;;;;;5031224;28;20451;-74
2023/10/20 12:10:53;;;;;;;7.90;7.60;;;21.70;99.90;;;;;;5031071;28;20894;-72
2023/10/20 12:13:19;;;;;;;7.50;7.10;;;21.70;99.90;;;;;;5030835;28;20469;-72
2023/10/20 12:15:46;;;;;;;7.57;7.17;;;21.70;99.90;;;;;;5030684;28;20539;-72
2023/10/20 12:18:15;;;;;;;8.50;8.00;;;21.70;99.90;;;;;;5031481;28;20480;-72
2023/10/20 12:20:42;;;;;;;8.63;8.23;;;21.70;99.90;;;;;;5034935;28;20445;-72
2023/10/20 12:23:09;;;;;;;7.80;7.40;;;21.70;99.90;;;;;;5035008;28;20481;-71
2023/10/20 12:25:36;;;;;;;7.00;6.80;;;21.60;99.90;;;;;;5034734;28;20477;-71
2023/10/20 12:28:04;;;;;;;7.87;7.57;;;21.70;99.90;;;;;;5034877;28;20944;-71
2023/10/20 12:30:32;;;;;;;8.40;8.10;;;21.60;99.90;;;;;;5034870;28;20445;-71
2023/10/20 12:32:59;;;;;;;7.60;7.20;;;21.60;99.90;;;;;;5034897;28;20464;-71
2023/10/20 12:35:28;;;;;;;8.10;7.67;;;21.60;99.90;;;;;;5034497;28;20475;-71
2023/10/20 12:37:55;;;;;;;8.47;8.17;;;21.60;99.90;;;;;;5034610;28;20468;-72
2023/10/20 12:40:22;;;;;;;8.40;8.03;;;21.60;99.90;;;;;;5034561;28;20820;-72
2023/10/20 12:42:50;;;;;;;8.87;8.57;;;21.60;99.90;;;;;;5034316;28;20468;-71
2023/10/20 12:45:17;;;;;;;8.03;7.73;;;21.60;99.90;;;;;;5034450;28;20471;-71
2023/10/20 12:47:44;;;;;;;7.77;7.57;;;21.60;99.90;;;;;;5034570;28;20472;-72
2023/10/20 12:50:11;;;;;;;7.67;7.37;;;21.60;99.90;;;;;;5034626;28;20449;-71
2023/10/20 12:52:40;;;;;;;8.00;7.70;;;21.60;99.90;;;;;;5034225;28;20496;-71
2023/10/20 12:55:08;;;;;;;8.47;8.17;;;21.60;99.90;;;;;;5034223;28;20496;-71
2023/10/20 12:57:35;;;;;;;8.30;8.00;;;21.50;99.90;;;;;;5034276;28;20469;-70
2023/10/20 13:00:03;;;;;;;7.83;7.47;;;21.60;99.90;;;;;;5034386;28;20469;-72
2023/10/20 13:02:30;;;;;;;7.33;7.00;;;21.50;99.90;;;;;;5034127;28;20465;-71